createdAt,value
2019-05-30T00:00:12.515Z,20.19
2019-05-30T00:01:02.101Z,20.19
2019-05-30T00:02:02.503Z,20.16
2019-05-30T00:03:02.223Z,20.10
2019-05-30T00:04:03.053Z,20.12
2019-05-30T00:05:02.560Z,20.10
2019-05-30T00:06:02.353Z,20.13
2019-05-30T00:07:02.449Z,20.12
2019-05-30T00:08:02.312Z,20.10
2019-05-30T00:09:01.052Z,20.10
2019-05-30T00:10:01.049Z,20.05
2019-05-30T00:11:01.057Z,20.12
2019-05-30T00:12:01.066Z,19.98
2019-05-30T00:13:01.020Z,20.10
2019-05-30T00:14:01.039Z,20.05
2019-05-30T00:15:01.017Z,20.08
2019-05-30T00:16:00.990Z,20.12
2019-05-30T00:17:01.014Z,20.16
2019-05-30T00:19:00.964Z,20.07
2019-05-30T00:20:01.107Z,19.97
2019-05-30T00:21:00.940Z,20.01
2019-05-30T00:22:00.931Z,20.01
2019-05-30T00:23:01.037Z,19.98
2019-05-30T00:24:02.004Z,19.98
2019-05-30T00:25:02.340Z,19.94
2019-05-30T00:26:01.366Z,19.92
2019-05-30T00:27:02.317Z,20.08
2019-05-30T00:28:01.331Z,19.95
2019-05-30T00:29:00.885Z,19.98
2019-05-30T00:30:01.466Z,19.98
2019-05-30T00:31:00.852Z,19.98
2019-05-30T00:32:01.585Z,20.04
2019-05-30T00:33:00.876Z,20.07
2019-05-30T00:34:02.425Z,20.13
2019-05-30T00:35:01.925Z,20.12
2019-05-30T00:36:01.759Z,20.10
2019-05-30T00:37:01.979Z,20.08
2019-05-30T00:38:01.777Z,20.10
2019-05-30T00:39:01.815Z,20.15
2019-05-30T00:40:01.916Z,19.94
2019-05-30T00:41:01.984Z,20.15
2019-05-30T00:42:01.966Z,20.07
2019-05-30T00:43:01.906Z,20.05
2019-05-30T00:44:01.030Z,19.98
2019-05-30T00:45:02.879Z,20.04
2019-05-30T00:46:00.716Z,20.12
2019-05-30T00:47:00.743Z,20.17
2019-05-30T00:48:00.688Z,20.12
2019-05-30T00:49:00.670Z,20.08
2019-05-30T00:50:00.665Z,20.12
2019-05-30T00:51:00.641Z,20.12
2019-05-30T00:52:00.641Z,20.15
2019-05-30T00:53:00.754Z,20.08
2019-05-30T00:54:00.751Z,20.10
2019-05-30T00:55:00.721Z,20.13
2019-05-30T00:56:01.560Z,20.10
2019-05-30T00:57:00.673Z,20.16
2019-05-30T00:58:00.670Z,20.12
2019-05-30T00:59:00.674Z,20.12
2019-05-30T01:00:00.966Z,20.04
2019-05-30T01:01:01.043Z,20.13
2019-05-30T01:02:00.721Z,20.12
2019-05-30T01:03:02.873Z,20.15
2019-05-30T01:04:00.793Z,20.08
2019-05-30T01:05:00.973Z,20.07
2019-05-30T01:06:00.828Z,20.12
2019-05-30T01:07:59.371Z,20.12
2019-05-30T01:08:00.913Z,20.10
2019-05-30T01:09:01.185Z,19.98
2019-05-30T01:10:00.958Z,20.07
2019-05-30T01:11:03.166Z,20.07
2019-05-30T01:12:01.122Z,20.13
2019-05-30T01:13:01.384Z,20.08
2019-05-30T01:14:01.142Z,20.15
2019-05-30T01:15:01.188Z,20.08
2019-05-30T01:16:01.083Z,20.10
2019-05-30T01:17:03.129Z,20.07
2019-05-30T01:18:01.094Z,20.05
2019-05-30T01:19:01.101Z,20.08
2019-05-30T01:20:01.183Z,20.10
2019-05-30T01:21:01.296Z,19.97
2019-05-30T01:22:01.304Z,20.16
2019-05-30T01:23:01.725Z,20.10
2019-05-30T01:24:01.355Z,20.10
2019-05-30T01:25:01.218Z,20.12
2019-05-30T01:26:01.352Z,20.16
2019-05-30T01:27:01.341Z,20.17
2019-05-30T01:28:01.634Z,20.02
2019-05-30T01:29:01.447Z,20.12
2019-05-30T01:30:01.606Z,20.08
2019-05-30T01:31:05.523Z,20.12
2019-05-30T01:32:01.478Z,20.15
2019-05-30T01:33:01.801Z,20.10
2019-05-30T01:34:01.577Z,20.12
2019-05-30T01:35:01.924Z,20.13
2019-05-30T01:36:01.577Z,20.17
2019-05-30T01:37:01.544Z,20.20
2019-05-30T01:38:01.870Z,20.19
2019-05-30T01:39:01.726Z,20.22
2019-05-30T01:40:01.884Z,20.26
2019-05-30T01:41:02.333Z,20.22
2019-05-30T01:42:01.736Z,20.22
2019-05-30T01:43:01.986Z,20.20
2019-05-30T01:44:01.839Z,20.19
2019-05-30T01:45:02.219Z,20.26
2019-05-30T01:46:02.020Z,20.23
2019-05-30T01:47:01.993Z,20.23
2019-05-30T01:48:00.762Z,20.19
2019-05-30T01:49:00.737Z,20.23
2019-05-30T01:50:00.719Z,20.23
2019-05-30T01:51:00.722Z,20.16
2019-05-30T01:52:00.687Z,20.19
2019-05-30T01:53:00.991Z,20.19
2019-05-30T01:54:00.723Z,20.22
2019-05-30T01:55:00.682Z,20.20
2019-05-30T01:56:00.792Z,20.20
2019-05-30T01:57:00.643Z,20.26
2019-05-30T01:58:01.485Z,20.34
2019-05-30T01:59:00.710Z,20.38
2019-05-30T02:00:00.776Z,20.40
2019-05-30T02:01:17.018Z,20.38
2019-05-30T02:02:00.903Z,20.35
2019-05-30T02:03:00.787Z,20.44
2019-05-30T02:04:01.044Z,20.38
2019-05-30T02:05:01.214Z,20.35
2019-05-30T02:06:01.070Z,20.37
2019-05-30T02:07:01.022Z,20.41
2019-05-30T02:08:01.014Z,20.35
2019-05-30T02:09:01.096Z,20.34
2019-05-30T02:10:01.139Z,20.42
2019-05-30T02:11:01.316Z,20.46
2019-05-30T02:12:01.227Z,20.44
2019-05-30T02:13:01.308Z,20.46
2019-05-30T02:14:01.597Z,20.46
2019-05-30T02:15:01.446Z,20.35
2019-05-30T02:16:01.486Z,20.44
2019-05-30T02:17:01.518Z,20.50
2019-05-30T02:18:01.458Z,20.50
2019-05-30T02:19:00.127Z,20.46
2019-05-30T02:20:00.075Z,20.38
2019-05-30T02:21:00.067Z,20.44
2019-05-30T02:22:00.067Z,20.46
2019-05-30T02:23:00.045Z,20.51
2019-05-30T02:24:00.053Z,20.50
2019-05-30T02:25:00.116Z,20.56
2019-05-30T02:26:00.143Z,20.40
2019-05-30T02:27:00.050Z,20.50
2019-05-30T02:28:00.099Z,20.53
2019-05-30T02:29:00.029Z,20.46
2019-05-30T02:30:00.140Z,20.41
2019-05-30T02:31:00.540Z,20.41
2019-05-30T02:32:01.065Z,20.37
2019-05-30T02:33:00.674Z,20.41
2019-05-30T02:34:00.973Z,20.37
2019-05-30T02:35:00.781Z,20.46
2019-05-30T02:36:01.311Z,20.38
2019-05-30T02:37:01.172Z,20.44
2019-05-30T02:38:00.941Z,20.46
2019-05-30T02:39:00.792Z,20.50
2019-05-30T02:40:02.563Z,20.50
2019-05-30T02:41:01.286Z,20.56
2019-05-30T02:42:00.931Z,20.48
2019-05-30T02:43:01.202Z,20.51
2019-05-30T02:44:01.215Z,20.60
2019-05-30T02:45:01.222Z,20.61
2019-05-30T02:46:00.930Z,20.56
2019-05-30T02:47:01.281Z,20.64
2019-05-30T02:48:01.221Z,20.61
2019-05-30T02:49:01.996Z,20.63
2019-05-30T02:50:01.299Z,20.64
2019-05-30T02:51:00.953Z,20.66
2019-05-30T02:51:59.790Z,20.66
2019-05-30T02:53:01.162Z,20.76
2019-05-30T02:54:01.357Z,20.68
2019-05-30T02:55:01.430Z,20.64
2019-05-30T02:56:01.319Z,20.66
2019-05-30T02:57:01.301Z,20.76
2019-05-30T02:58:01.207Z,20.73
2019-05-30T02:59:01.350Z,20.73
2019-05-30T03:00:01.754Z,20.71
2019-05-30T03:01:01.730Z,20.71
2019-05-30T03:02:03.925Z,20.69
2019-05-30T03:03:01.758Z,20.75
2019-05-30T03:04:01.653Z,20.71
2019-05-30T03:05:01.346Z,20.73
2019-05-30T03:06:01.615Z,20.66
2019-05-30T03:06:59.659Z,20.72
2019-05-30T03:07:59.650Z,20.75
2019-05-30T03:09:01.685Z,20.72
2019-05-30T03:09:59.618Z,20.76
2019-05-30T03:10:59.593Z,20.73
2019-05-30T03:11:59.614Z,20.78
2019-05-30T03:12:59.575Z,20.75
2019-05-30T03:13:59.604Z,20.73
2019-05-30T03:14:59.678Z,20.78
2019-05-30T03:15:59.582Z,20.72
2019-05-30T03:16:59.567Z,20.79
2019-05-30T03:17:59.552Z,20.78
2019-05-30T03:18:59.557Z,20.81
2019-05-30T03:19:59.551Z,20.79
2019-05-30T03:20:59.534Z,20.81
2019-05-30T03:21:59.517Z,20.81
2019-05-30T03:22:59.522Z,20.82
2019-05-30T03:23:59.493Z,20.83
2019-05-30T03:24:59.493Z,20.85
2019-05-30T03:25:59.471Z,20.87
2019-05-30T03:26:59.465Z,20.87
2019-05-30T03:27:59.501Z,20.82
2019-05-30T03:28:59.441Z,20.85
2019-05-30T03:29:59.484Z,20.83
2019-05-30T03:30:59.439Z,20.87
2019-05-30T03:32:33.761Z,20.88
2019-05-30T03:33:07.273Z,20.82
2019-05-30T03:33:59.413Z,20.83
2019-05-30T03:34:59.393Z,20.82
2019-05-30T03:35:59.384Z,20.81
2019-05-30T03:36:59.388Z,20.88
2019-05-30T03:37:59.379Z,20.79
2019-05-30T03:38:59.378Z,20.83
2019-05-30T03:39:59.406Z,20.79
2019-05-30T03:40:59.345Z,20.93
2019-05-30T03:41:59.349Z,20.90
2019-05-30T03:42:59.375Z,20.88
2019-05-30T03:43:59.333Z,20.85
2019-05-30T03:44:59.301Z,20.83
2019-05-30T03:45:59.307Z,20.79
2019-05-30T03:46:59.303Z,20.85
2019-05-30T03:47:59.271Z,20.87
2019-05-30T03:48:59.301Z,20.83
2019-05-30T03:49:59.276Z,20.85
2019-05-30T03:50:59.246Z,20.91
2019-05-30T03:51:59.237Z,20.87
2019-05-30T03:52:59.286Z,20.82
2019-05-30T03:53:59.251Z,20.82
2019-05-30T03:54:59.214Z,20.87
2019-05-30T03:55:59.259Z,20.82
2019-05-30T03:56:59.221Z,20.85
2019-05-30T03:57:59.201Z,20.88
2019-05-30T03:58:59.224Z,20.98
2019-05-30T03:59:59.176Z,20.98
2019-05-30T04:00:59.183Z,20.93
2019-05-30T04:01:59.163Z,20.93
2019-05-30T04:02:59.571Z,20.87
2019-05-30T04:03:59.135Z,20.83
2019-05-30T04:04:59.136Z,20.85
2019-05-30T04:05:59.163Z,20.93
2019-05-30T04:06:59.123Z,20.90
2019-05-30T04:07:59.119Z,20.90
2019-05-30T04:08:59.097Z,20.83
2019-05-30T04:09:59.092Z,20.83
2019-05-30T04:10:59.058Z,20.82
2019-05-30T04:11:59.072Z,20.82
2019-05-30T04:12:59.050Z,20.81
2019-05-30T04:13:59.070Z,20.75
2019-05-30T04:14:59.032Z,20.72
2019-05-30T04:15:59.028Z,20.82
2019-05-30T04:16:59.019Z,20.79
2019-05-30T04:17:59.083Z,20.82
2019-05-30T04:18:59.022Z,20.87
2019-05-30T04:19:59.002Z,20.81
2019-05-30T04:20:58.982Z,20.83
2019-05-30T04:21:58.974Z,20.88
2019-05-30T04:22:58.962Z,20.87
2019-05-30T04:23:58.968Z,20.85
2019-05-30T04:24:58.964Z,20.82
2019-05-30T04:26:00.737Z,20.87
2019-05-30T04:26:58.927Z,20.85
2019-05-30T04:27:58.947Z,20.87
2019-05-30T04:28:58.966Z,20.85
2019-05-30T04:29:58.921Z,20.81
2019-05-30T04:30:58.899Z,20.81
2019-05-30T04:31:58.897Z,20.72
2019-05-30T04:33:16.172Z,20.76
2019-05-30T04:33:58.867Z,20.75
2019-05-30T04:34:58.872Z,20.64
2019-05-30T04:35:58.870Z,20.66
2019-05-30T04:36:58.858Z,20.66
2019-05-30T04:37:58.849Z,20.57
2019-05-30T04:38:58.838Z,20.56
2019-05-30T04:39:58.807Z,20.56
2019-05-30T04:40:58.827Z,20.57
2019-05-30T04:41:58.812Z,20.51
2019-05-30T04:42:58.797Z,20.56
2019-05-30T04:43:58.790Z,20.57
2019-05-30T04:44:58.784Z,20.56
2019-05-30T04:45:58.771Z,20.57
2019-05-30T04:46:58.740Z,20.61
2019-05-30T04:47:58.883Z,20.56
2019-05-30T04:48:58.780Z,20.66
2019-05-30T04:49:58.720Z,20.66
2019-05-30T04:50:58.734Z,20.66
2019-05-30T04:51:58.714Z,20.66
2019-05-30T04:52:58.744Z,20.66
2019-05-30T04:53:58.710Z,20.69
2019-05-30T04:54:58.692Z,20.69
2019-05-30T04:55:58.687Z,20.66
2019-05-30T04:56:58.677Z,20.68
2019-05-30T04:57:58.642Z,20.66
2019-05-30T04:58:58.644Z,20.66
2019-05-30T04:59:58.680Z,20.75
2019-05-30T05:00:58.645Z,20.72
2019-05-30T05:01:58.624Z,20.72
2019-05-30T05:02:58.620Z,20.66
2019-05-30T05:03:58.610Z,20.75
2019-05-30T05:04:58.587Z,20.75
2019-05-30T05:05:58.576Z,20.69
2019-05-30T05:06:58.578Z,20.71
2019-05-30T05:07:58.587Z,20.64
2019-05-30T05:08:58.565Z,20.75
2019-05-30T05:09:58.546Z,20.66
2019-05-30T05:10:58.520Z,20.68
2019-05-30T05:11:58.525Z,20.64
2019-05-30T05:12:58.515Z,20.56
2019-05-30T05:13:58.502Z,20.66
2019-05-30T05:14:58.485Z,20.66
2019-05-30T05:15:58.484Z,20.51
2019-05-30T05:16:58.493Z,20.66
2019-05-30T05:17:58.483Z,20.54
2019-05-30T05:18:58.503Z,20.53
2019-05-30T05:19:58.465Z,20.51
2019-05-30T05:20:58.456Z,20.61
2019-05-30T05:21:58.440Z,20.58
2019-05-30T05:22:58.443Z,20.53
2019-05-30T05:23:58.425Z,20.53
2019-05-30T05:24:58.417Z,20.53
2019-05-30T05:26:01.182Z,20.61
2019-05-30T05:26:58.378Z,20.64
2019-05-30T05:27:58.383Z,20.64
2019-05-30T05:28:58.366Z,20.66
2019-05-30T05:29:58.379Z,20.71
2019-05-30T05:30:58.396Z,20.68
2019-05-30T05:31:58.349Z,20.64
2019-05-30T05:32:58.326Z,20.68
2019-05-30T05:33:58.314Z,20.64
2019-05-30T05:34:58.321Z,20.63
2019-05-30T05:35:58.297Z,20.69
2019-05-30T05:36:58.296Z,20.64
2019-05-30T05:37:58.289Z,20.66
2019-05-30T05:38:58.325Z,20.66
2019-05-30T05:39:58.275Z,20.75
2019-05-30T05:40:58.274Z,20.76
2019-05-30T05:41:58.246Z,20.73
2019-05-30T05:42:58.260Z,20.75
2019-05-30T05:43:58.293Z,20.64
2019-05-30T05:44:58.276Z,20.69
2019-05-30T05:45:58.225Z,20.72
2019-05-30T05:46:58.212Z,20.76
2019-05-30T05:47:58.196Z,20.73
2019-05-30T05:48:58.200Z,20.72
2019-05-30T05:49:58.188Z,20.72
2019-05-30T05:50:58.175Z,20.81
2019-05-30T05:51:58.186Z,20.69
2019-05-30T05:52:58.160Z,20.69
2019-05-30T05:53:58.164Z,20.71
2019-05-30T05:54:58.153Z,20.75
2019-05-30T05:55:58.151Z,20.76
2019-05-30T05:56:58.132Z,20.79
2019-05-30T05:57:58.113Z,20.76
2019-05-30T05:58:58.090Z,20.71
2019-05-30T05:59:58.091Z,20.82
2019-05-30T06:00:58.091Z,20.73
2019-05-30T06:01:58.080Z,20.69
2019-05-30T06:02:58.054Z,20.72
2019-05-30T06:04:11.982Z,20.72
2019-05-30T06:04:58.065Z,20.73
2019-05-30T06:05:58.022Z,20.72
2019-05-30T06:06:58.024Z,20.75
2019-05-30T06:07:58.030Z,20.73
2019-05-30T06:08:58.004Z,20.78
2019-05-30T06:09:57.984Z,20.83
2019-05-30T06:10:58.001Z,20.85
2019-05-30T06:11:58.002Z,20.82
2019-05-30T06:12:57.982Z,20.79
2019-05-30T06:13:57.954Z,20.83
2019-05-30T06:14:57.974Z,20.88
2019-05-30T06:15:57.958Z,20.81
2019-05-30T06:16:57.950Z,20.87
2019-05-30T06:17:57.947Z,20.81
2019-05-30T06:18:57.927Z,20.76
2019-05-30T06:19:57.921Z,20.73
2019-05-30T06:20:57.948Z,20.72
2019-05-30T06:21:57.952Z,20.71
2019-05-30T06:22:57.881Z,20.72
2019-05-30T06:23:57.861Z,20.69
2019-05-30T06:24:57.879Z,20.79
2019-05-30T06:25:57.885Z,20.82
2019-05-30T06:26:57.873Z,20.79
2019-05-30T06:27:57.859Z,20.76
2019-05-30T06:28:57.831Z,20.85
2019-05-30T06:29:57.857Z,20.82
2019-05-30T06:30:59.020Z,20.82
2019-05-30T06:31:57.813Z,20.73
2019-05-30T06:32:57.798Z,20.82
2019-05-30T06:33:57.814Z,20.73
2019-05-30T06:34:57.769Z,20.71
2019-05-30T06:35:57.776Z,20.75
2019-05-30T06:36:57.756Z,20.68
2019-05-30T06:37:57.771Z,20.71
2019-05-30T06:38:57.788Z,20.75
2019-05-30T06:39:57.788Z,20.69
2019-05-30T06:40:57.727Z,20.68
2019-05-30T06:41:57.740Z,20.56
2019-05-30T06:42:57.722Z,20.60
2019-05-30T06:43:57.701Z,20.64
2019-05-30T06:44:57.692Z,20.61
2019-05-30T06:45:57.677Z,20.61
2019-05-30T06:46:57.666Z,20.66
2019-05-30T06:47:57.682Z,20.64
2019-05-30T06:48:57.648Z,20.66
2019-05-30T06:49:57.640Z,20.63
2019-05-30T06:50:57.630Z,20.72
2019-05-30T06:51:57.640Z,20.71
2019-05-30T06:52:57.631Z,20.73
2019-05-30T06:53:57.598Z,20.73
2019-05-30T06:54:57.600Z,20.69
2019-05-30T06:55:57.629Z,20.72
2019-05-30T06:56:57.597Z,20.82
2019-05-30T06:57:57.581Z,20.81
2019-05-30T06:58:57.578Z,20.83
2019-05-30T06:59:57.538Z,20.83
2019-05-30T07:00:57.581Z,20.78
2019-05-30T07:01:57.532Z,20.78
2019-05-30T07:02:57.556Z,20.72
2019-05-30T07:03:57.660Z,20.75
2019-05-30T07:04:58.016Z,20.82
2019-05-30T07:05:57.900Z,20.83
2019-05-30T07:06:57.601Z,20.83
2019-05-30T07:07:57.483Z,20.79
2019-05-30T07:08:57.498Z,20.82
2019-05-30T07:09:57.472Z,20.76
2019-05-30T07:10:57.445Z,20.81
2019-05-30T07:11:57.463Z,20.82
2019-05-30T07:12:57.451Z,20.88
2019-05-30T07:13:57.441Z,20.87
2019-05-30T07:14:57.424Z,20.82
2019-05-30T07:15:57.418Z,20.79
2019-05-30T07:16:57.410Z,20.88
2019-05-30T07:17:57.438Z,20.87
2019-05-30T07:18:57.392Z,20.90
2019-05-30T07:19:57.400Z,20.82
2019-05-30T07:20:57.383Z,20.85
2019-05-30T07:21:57.364Z,20.87
2019-05-30T07:22:57.359Z,20.91
2019-05-30T07:23:57.380Z,20.85
2019-05-30T07:24:57.344Z,20.88
2019-05-30T07:25:57.315Z,20.94
2019-05-30T07:26:57.352Z,20.98
2019-05-30T07:27:57.287Z,20.88
2019-05-30T07:29:00.549Z,20.88
2019-05-30T07:29:57.306Z,20.91
2019-05-30T07:30:57.272Z,20.82
2019-05-30T07:31:57.315Z,20.82
2019-05-30T07:32:57.281Z,20.90
2019-05-30T07:33:57.256Z,20.85
2019-05-30T07:35:06.150Z,20.88
2019-05-30T07:35:57.251Z,20.82
2019-05-30T07:36:57.231Z,20.79
2019-05-30T07:37:57.225Z,20.73
2019-05-30T07:38:57.191Z,20.69
2019-05-30T07:39:57.201Z,20.78
2019-05-30T07:40:57.196Z,20.81
2019-05-30T07:42:06.296Z,20.82
2019-05-30T07:42:57.180Z,20.88
2019-05-30T07:43:57.176Z,20.79
2019-05-30T07:44:57.178Z,20.82
2019-05-30T07:45:58.553Z,20.79
2019-05-30T07:46:57.131Z,20.79
2019-05-30T07:47:57.121Z,20.90
2019-05-30T07:48:57.121Z,20.87
2019-05-30T07:49:57.092Z,20.90
2019-05-30T07:50:57.112Z,20.83
2019-05-30T07:51:57.102Z,20.75
2019-05-30T07:52:57.084Z,20.72
2019-05-30T07:53:57.091Z,20.71
2019-05-30T07:54:57.055Z,20.76
2019-05-30T07:55:57.053Z,20.76
2019-05-30T07:56:57.047Z,20.78
2019-05-30T07:57:57.050Z,20.73
2019-05-30T07:58:57.032Z,20.83
2019-05-30T07:59:57.017Z,20.78
2019-05-30T08:00:57.008Z,20.82
2019-05-30T08:01:56.991Z,20.79
2019-05-30T08:02:57.005Z,20.78
2019-05-30T08:03:56.985Z,20.72
2019-05-30T08:04:57.020Z,20.69
2019-05-30T08:05:56.962Z,20.72
2019-05-30T08:06:56.971Z,20.64
2019-05-30T08:07:56.948Z,20.73
2019-05-30T08:08:56.936Z,20.64
2019-05-30T08:09:56.940Z,20.66
2019-05-30T08:11:08.864Z,20.53
2019-05-30T08:11:56.923Z,20.60
2019-05-30T08:12:56.922Z,20.53
2019-05-30T08:13:56.897Z,20.58
2019-05-30T08:14:56.896Z,20.50
2019-05-30T08:15:56.872Z,20.50
2019-05-30T08:16:56.877Z,20.64
2019-05-30T08:17:56.864Z,20.54
2019-05-30T08:18:56.844Z,20.68
2019-05-30T08:19:56.883Z,20.72
2019-05-30T08:20:56.827Z,20.71
2019-05-30T08:21:56.829Z,20.76
2019-05-30T08:22:56.809Z,20.75
2019-05-30T08:23:56.807Z,20.72
2019-05-30T08:24:56.810Z,20.66
2019-05-30T08:25:56.786Z,20.72
2019-05-30T08:26:56.766Z,20.71
2019-05-30T08:27:56.762Z,20.61
2019-05-30T08:28:56.766Z,20.56
2019-05-30T08:29:56.753Z,20.58
2019-05-30T08:30:56.997Z,20.56
2019-05-30T08:31:56.745Z,20.61
2019-05-30T08:32:56.726Z,20.54
2019-05-30T08:33:56.728Z,20.60
2019-05-30T08:34:56.723Z,20.56
2019-05-30T08:35:56.700Z,20.56
2019-05-30T08:36:56.698Z,20.58
2019-05-30T08:37:56.665Z,20.57
2019-05-30T08:38:56.662Z,20.57
2019-05-30T08:39:56.674Z,20.46
2019-05-30T08:40:56.647Z,20.57
2019-05-30T08:41:56.736Z,20.60
2019-05-30T08:42:56.654Z,20.54
2019-05-30T08:43:56.639Z,20.57
2019-05-30T08:44:56.628Z,20.50
2019-05-30T08:45:56.612Z,20.57
2019-05-30T08:46:56.584Z,20.60
2019-05-30T08:47:56.591Z,20.58
2019-05-30T08:48:56.621Z,20.58
2019-05-30T08:49:56.579Z,20.63
2019-05-30T08:50:56.573Z,20.66
2019-05-30T08:51:56.557Z,20.71
2019-05-30T08:52:56.595Z,20.72
2019-05-30T08:53:56.520Z,20.72
2019-05-30T08:54:56.511Z,20.69
2019-05-30T08:55:56.508Z,20.75
2019-05-30T08:56:56.521Z,20.69
2019-05-30T08:57:56.491Z,20.71
2019-05-30T08:58:56.524Z,20.63
2019-05-30T08:59:56.466Z,20.66
2019-05-30T09:00:56.487Z,20.66
2019-05-30T09:01:56.447Z,20.75
2019-05-30T09:02:56.437Z,20.76
2019-05-30T09:03:56.434Z,20.73
2019-05-30T09:04:56.438Z,20.68
2019-05-30T09:06:03.327Z,20.78
2019-05-30T09:06:56.409Z,20.68
2019-05-30T09:07:56.410Z,20.68
2019-05-30T09:08:56.383Z,20.72
2019-05-30T09:09:56.394Z,20.78
2019-05-30T09:10:56.361Z,20.75
2019-05-30T09:11:56.374Z,20.83
2019-05-30T09:12:56.415Z,20.78
2019-05-30T09:13:56.354Z,20.78
2019-05-30T09:14:56.330Z,20.83
2019-05-30T09:15:56.334Z,20.90
2019-05-30T09:16:57.081Z,20.81
2019-05-30T09:17:56.370Z,20.88
2019-05-30T09:18:56.307Z,20.81
2019-05-30T09:19:56.291Z,20.71
2019-05-30T09:20:56.305Z,20.76
2019-05-30T09:21:56.291Z,20.68
2019-05-30T09:22:56.265Z,20.75
2019-05-30T09:24:00.361Z,20.73
2019-05-30T09:24:56.267Z,20.73
2019-05-30T09:25:56.246Z,20.71
2019-05-30T09:26:56.239Z,20.71
2019-05-30T09:27:56.211Z,20.72
2019-05-30T09:28:56.213Z,20.73
2019-05-30T09:29:56.195Z,20.71
2019-05-30T09:30:56.187Z,20.75
2019-05-30T09:31:56.206Z,20.69
2019-05-30T09:32:56.195Z,20.75
2019-05-30T09:33:56.180Z,20.71
2019-05-30T09:34:56.172Z,20.69
2019-05-30T09:36:11.794Z,20.72
2019-05-30T09:36:56.159Z,20.66
2019-05-30T09:37:56.144Z,20.69
2019-05-30T09:38:56.127Z,20.66
2019-05-30T09:39:56.132Z,20.58
2019-05-30T09:40:56.103Z,20.57
2019-05-30T09:41:56.087Z,20.58
2019-05-30T09:42:56.077Z,20.63
2019-05-30T09:43:56.079Z,20.56
2019-05-30T09:44:56.083Z,20.58
2019-05-30T09:45:56.077Z,20.53
2019-05-30T09:46:56.056Z,20.51
2019-05-30T09:47:56.036Z,20.58
2019-05-30T09:48:56.052Z,20.54
2019-05-30T09:49:56.026Z,20.56
2019-05-30T09:50:56.024Z,20.53
2019-05-30T09:51:56.018Z,20.54
2019-05-30T09:52:56.004Z,20.63
2019-05-30T09:53:55.995Z,20.57
2019-05-30T09:54:55.978Z,20.61
2019-05-30T09:55:55.968Z,20.50
2019-05-30T09:56:57.333Z,20.50
2019-05-30T09:57:55.943Z,20.64
2019-05-30T09:58:55.956Z,20.69
2019-05-30T09:59:55.940Z,20.73
2019-05-30T10:00:55.983Z,20.72
2019-05-30T10:01:55.915Z,20.64
2019-05-30T10:02:55.904Z,20.69
2019-05-30T10:03:55.898Z,20.69
2019-05-30T10:04:55.892Z,20.76
2019-05-30T10:05:55.875Z,20.71
2019-05-30T10:06:55.876Z,20.81
2019-05-30T10:07:55.858Z,20.79
2019-05-30T10:08:55.834Z,20.85
2019-05-30T10:09:55.834Z,20.90
2019-05-30T10:10:55.840Z,20.87
2019-05-30T10:11:55.826Z,20.83
2019-05-30T10:12:56.539Z,20.82
2019-05-30T10:13:56.800Z,20.85
2019-05-30T10:14:57.025Z,20.85
2019-05-30T10:15:56.631Z,20.83
2019-05-30T10:16:56.874Z,20.90
2019-05-30T10:17:56.874Z,20.82
2019-05-30T10:18:56.887Z,20.93
2019-05-30T10:19:57.225Z,20.96
2019-05-30T10:20:57.034Z,20.98
2019-05-30T10:21:57.152Z,20.96
2019-05-30T10:22:57.119Z,21.00
2019-05-30T10:23:55.726Z,20.90
2019-05-30T10:24:55.715Z,21.05
2019-05-30T10:25:55.689Z,20.93
2019-05-30T10:26:55.689Z,20.91
2019-05-30T10:27:55.719Z,21.05
2019-05-30T10:28:55.662Z,20.94
2019-05-30T10:29:55.665Z,20.97
2019-05-30T10:30:58.948Z,20.91
2019-05-30T10:31:56.883Z,21.06
2019-05-30T10:32:55.893Z,21.06
2019-05-30T10:33:56.849Z,21.08
2019-05-30T10:34:56.132Z,21.13
2019-05-30T10:35:56.942Z,21.11
2019-05-30T10:36:55.787Z,21.06
2019-05-30T10:37:56.810Z,21.08
2019-05-30T10:38:56.037Z,21.12
2019-05-30T10:39:58.677Z,21.11
2019-05-30T10:40:56.086Z,21.16
2019-05-30T10:41:55.574Z,21.03
2019-05-30T10:42:56.765Z,21.03
2019-05-30T10:43:55.541Z,20.96
2019-05-30T10:44:56.412Z,21.00
2019-05-30T10:45:55.539Z,21.06
2019-05-30T10:46:56.507Z,21.13
2019-05-30T10:47:55.509Z,21.05
2019-05-30T10:48:56.739Z,21.09
2019-05-30T10:49:55.527Z,21.08
2019-05-30T10:50:56.378Z,21.18
2019-05-30T10:51:58.813Z,21.21
2019-05-30T10:52:55.602Z,21.15
2019-05-30T10:53:55.754Z,21.18
2019-05-30T10:54:55.605Z,21.16
2019-05-30T10:55:56.419Z,21.26
2019-05-30T10:56:55.678Z,21.30
2019-05-30T10:57:58.117Z,21.30
2019-05-30T10:58:55.398Z,21.30
2019-05-30T10:59:56.728Z,21.33
2019-05-30T11:00:55.770Z,21.36
2019-05-30T11:01:56.583Z,21.37
2019-05-30T11:02:55.383Z,21.34
2019-05-30T11:03:55.380Z,21.40
2019-05-30T11:04:55.369Z,21.28
2019-05-30T11:05:55.365Z,21.34
2019-05-30T11:07:07.585Z,21.31
2019-05-30T11:08:05.297Z,21.42
2019-05-30T11:08:55.322Z,21.37
2019-05-30T11:09:55.312Z,21.34
2019-05-30T11:10:55.355Z,21.37
2019-05-30T11:11:55.296Z,21.31
2019-05-30T11:13:00.356Z,21.22
2019-05-30T11:13:55.408Z,21.18
2019-05-30T11:14:55.343Z,21.26
2019-05-30T11:15:55.503Z,21.26
2019-05-30T11:16:55.594Z,21.27
2019-05-30T11:17:56.245Z,21.18
2019-05-30T11:18:56.175Z,21.16
2019-05-30T11:19:56.153Z,21.13
2019-05-30T11:20:56.175Z,21.22
2019-05-30T11:21:56.249Z,21.27
2019-05-30T11:22:56.364Z,21.22
2019-05-30T11:23:56.627Z,21.15
2019-05-30T11:24:56.794Z,21.16
2019-05-30T11:25:55.176Z,21.22
2019-05-30T11:26:55.557Z,21.27
2019-05-30T11:27:55.157Z,21.37
2019-05-30T11:28:55.127Z,21.28
2019-05-30T11:29:55.135Z,21.36
2019-05-30T11:30:55.141Z,21.34
2019-05-30T11:31:55.131Z,21.43
2019-05-30T11:32:55.181Z,21.36
2019-05-30T11:33:55.113Z,21.38
2019-05-30T11:34:55.439Z,21.42
2019-05-30T11:35:55.165Z,21.45
2019-05-30T11:36:55.151Z,21.43
2019-05-30T11:37:55.251Z,21.46
2019-05-30T11:38:55.326Z,21.49
2019-05-30T11:39:55.338Z,21.40
2019-05-30T11:40:55.490Z,21.46
2019-05-30T11:41:55.322Z,21.37
2019-05-30T11:42:55.498Z,21.45
2019-05-30T11:43:55.581Z,21.48
2019-05-30T11:44:55.473Z,21.48
2019-05-30T11:45:55.997Z,21.56
2019-05-30T11:46:55.605Z,21.64
2019-05-30T11:47:55.746Z,21.81
2019-05-30T11:48:55.654Z,21.75
2019-05-30T11:49:55.733Z,21.77
2019-05-30T11:50:55.779Z,21.77
2019-05-30T11:51:55.773Z,21.86
2019-05-30T11:52:55.853Z,21.93
2019-05-30T11:53:55.817Z,21.91
2019-05-30T11:54:55.937Z,21.94
2019-05-30T11:55:56.150Z,22.02
2019-05-30T11:56:56.056Z,22.02
2019-05-30T11:57:56.132Z,22.01
2019-05-30T11:58:55.919Z,22.12
2019-05-30T11:59:56.151Z,22.02
2019-05-30T12:00:54.859Z,22.04
2019-05-30T12:01:54.861Z,21.96
2019-05-30T12:02:54.901Z,22.11
2019-05-30T12:03:54.845Z,22.17
2019-05-30T12:04:54.845Z,22.35
2019-05-30T12:05:55.150Z,22.52
2019-05-30T12:06:54.831Z,22.57
2019-05-30T12:07:54.931Z,22.63
2019-05-30T12:08:54.802Z,22.78
2019-05-30T12:09:54.846Z,22.99
2019-05-30T12:10:55.023Z,22.82
2019-05-30T12:11:55.166Z,22.97
2019-05-30T12:12:55.243Z,23.01
2019-05-30T12:13:55.210Z,23.11
2019-05-30T12:14:55.248Z,23.07
2019-05-30T12:15:55.434Z,23.03
2019-05-30T12:16:55.241Z,23.06
2019-05-30T12:17:55.331Z,23.11
2019-05-30T12:18:55.762Z,23.14
2019-05-30T12:19:56.002Z,23.16
2019-05-30T12:20:55.667Z,23.23
2019-05-30T12:21:55.554Z,23.38
2019-05-30T12:22:55.810Z,23.37
2019-05-30T12:23:55.925Z,23.34
2019-05-30T12:24:55.801Z,23.53
2019-05-30T12:25:55.886Z,23.50
2019-05-30T12:26:55.920Z,23.37
2019-05-30T12:27:55.945Z,23.41
2019-05-30T12:28:54.659Z,23.49
2019-05-30T12:29:54.652Z,23.59
2019-05-30T12:30:59.279Z,23.45
2019-05-30T12:31:57.574Z,23.53
2019-05-30T12:32:54.638Z,23.47
2019-05-30T12:33:54.629Z,23.47
2019-05-30T12:34:54.620Z,23.64
2019-05-30T12:35:54.624Z,23.45
2019-05-30T12:36:54.592Z,23.63
2019-05-30T12:37:59.118Z,23.59
2019-05-30T12:38:54.578Z,23.53
2019-05-30T12:39:54.596Z,23.41
2019-05-30T12:40:54.707Z,23.26
2019-05-30T12:41:54.859Z,23.34
2019-05-30T12:42:57.350Z,23.19
2019-05-30T12:43:55.025Z,23.21
2019-05-30T12:44:55.011Z,23.22
2019-05-30T12:45:54.923Z,23.16
2019-05-30T12:46:55.461Z,23.16
2019-05-30T12:47:55.107Z,23.11
2019-05-30T12:48:55.192Z,23.19
2019-05-30T12:49:55.158Z,23.29
2019-05-30T12:50:55.173Z,23.25
2019-05-30T12:51:54.495Z,23.15
2019-05-30T12:52:55.490Z,23.19